sensor_id;sensor_type;location;lat;lon;timestamp;P1;durP1;ratioP1;P2;durP2;ratioP2
32038;SDS011;18549;42.286;22.688;2023-02-28T00:01:18;14.80;;;4.23;;
32038;SDS011;18549;42.286;22.688;2023-02-28T00:03:46;8.63;;;3.97;;
32038;SDS011;18549;42.286;22.688;2023-02-28T00:06:13;7.67;;;4.53;;
32038;SDS011;18549;42.286;22.688;2023-02-28T00:08:40;12.93;;;4.37;;
32038;SDS011;18549;42.286;22.688;2023-02-28T00:11:08;11.83;;;4.00;;
32038;SDS011;18549;42.286;22.688;2023-02-28T00:13:37;11.30;;;4.70;;
32038;SDS011;18549;42.286;22.688;2023-02-28T00:16:06;11.27;;;4.80;;
32038;SDS011;18549;42.286;22.688;2023-02-28T00:18:35;13.17;;;4.63;;
32038;SDS011;18549;42.286;22.688;2023-02-28T00:21:04;7.93;;;4.43;;
32038;SDS011;18549;42.286;22.688;2023-02-28T00:23:31;9.60;;;5.13;;
32038;SDS011;18549;42.286;22.688;2023-02-28T00:25:59;13.93;;;5.07;;
32038;SDS011;18549;42.286;22.688;2023-02-28T00:28:26;11.50;;;4.50;;
32038;SDS011;18549;42.286;22.688;2023-02-28T00:30:52;12.43;;;4.23;;
32038;SDS011;18549;42.286;22.688;2023-02-28T00:33:20;15.17;;;4.63;;
32038;SDS011;18549;42.286;22.688;2023-02-28T00:35:47;13.47;;;3.43;;
32038;SDS011;18549;42.286;22.688;2023-02-28T00:38:15;10.43;;;3.67;;
32038;SDS011;18549;42.286;22.688;2023-02-28T00:40:42;8.73;;;3.10;;
32038;SDS011;18549;42.286;22.688;2023-02-28T00:43:09;8.53;;;3.33;;
32038;SDS011;18549;42.286;22.688;2023-02-28T00:45:36;9.40;;;2.90;;
32038;SDS011;18549;42.286;22.688;2023-02-28T00:48:03;10.80;;;3.80;;
32038;SDS011;18549;42.286;22.688;2023-02-28T00:50:30;7.30;;;3.27;;
32038;SDS011;18549;42.286;22.688;2023-02-28T00:52:57;13.63;;;4.37;;
32038;SDS011;18549;42.286;22.688;2023-02-28T00:55:25;8.40;;;3.73;;
32038;SDS011;18549;42.286;22.688;2023-02-28T00:57:52;11.37;;;3.90;;
32038;SDS011;18549;42.286;22.688;2023-02-28T01:00:19;14.27;;;4.97;;
32038;SDS011;18549;42.286;22.688;2023-02-28T01:02:46;12.20;;;6.10;;
32038;SDS011;18549;42.286;22.688;2023-02-28T01:05:12;25.10;;;8.77;;
32038;SDS011;18549;42.286;22.688;2023-02-28T01:07:39;19.03;;;7.03;;
32038;SDS011;18549;42.286;22.688;2023-02-28T01:10:06;21.40;;;10.70;;
32038;SDS011;18549;42.286;22.688;2023-02-28T01:12:36;24.40;;;11.00;;
32038;SDS011;18549;42.286;22.688;2023-02-28T01:15:03;22.73;;;11.30;;
32038;SDS011;18549;42.286;22.688;2023-02-28T01:17:30;19.63;;;12.50;;
32038;SDS011;18549;42.286;22.688;2023-02-28T01:19:57;18.07;;;10.53;;
32038;SDS011;18549;42.286;22.688;2023-02-28T01:22:24;23.50;;;12.43;;
32038;SDS011;18549;42.286;22.688;2023-02-28T01:24:51;20.77;;;11.97;;
32038;SDS011;18549;42.286;22.688;2023-02-28T01:27:18;20.60;;;11.27;;
32038;SDS011;18549;42.286;22.688;2023-02-28T01:29:46;34.03;;;12.23;;
32038;SDS011;18549;42.286;22.688;2023-02-28T01:32:13;21.43;;;9.67;;
32038;SDS011;18549;42.286;22.688;2023-02-28T01:34:39;18.33;;;8.00;;
32038;SDS011;18549;42.286;22.688;2023-02-28T01:37:06;14.50;;;7.73;;
32038;SDS011;18549;42.286;22.688;2023-02-28T01:39:33;11.33;;;6.33;;
32038;SDS011;18549;42.286;22.688;2023-02-28T01:42:00;8.07;;;6.37;;
32038;SDS011;18549;42.286;22.688;2023-02-28T01:47:29;19.03;;;9.20;;
32038;SDS011;18549;42.286;22.688;2023-02-28T01:49:58;18.47;;;10.63;;
32038;SDS011;18549;42.286;22.688;2023-02-28T01:52:28;17.90;;;9.40;;
32038;SDS011;18549;42.286;22.688;2023-02-28T01:54:58;23.10;;;9.23;;
32038;SDS011;18549;42.286;22.688;2023-02-28T01:57:28;19.43;;;9.57;;
32038;SDS011;18549;42.286;22.688;2023-02-28T02:00:04;15.30;;;8.13;;
32038;SDS011;18549;42.286;22.688;2023-02-28T02:02:34;15.43;;;7.73;;
32038;SDS011;18549;42.286;22.688;2023-02-28T02:05:04;12.63;;;6.63;;
32038;SDS011;18549;42.286;22.688;2023-02-28T02:07:33;12.43;;;6.50;;
32038;SDS011;18549;42.286;22.688;2023-02-28T02:10:04;17.97;;;6.47;;
32038;SDS011;18549;42.286;22.688;2023-02-28T02:12:36;9.77;;;5.70;;
32038;SDS011;18549;42.286;22.688;2023-02-28T02:15:13;16.10;;;5.90;;
32038;SDS011;18549;42.286;22.688;2023-02-28T02:17:45;12.67;;;6.87;;
32038;SDS011;18549;42.286;22.688;2023-02-28T02:26:32;23.77;;;6.73;;
32038;SDS011;18549;42.286;22.688;2023-02-28T02:29:21;15.93;;;6.13;;
32038;SDS011;18549;42.286;22.688;2023-02-28T02:32:32;11.97;;;5.50;;
32038;SDS011;18549;42.286;22.688;2023-02-28T02:35:31;18.93;;;6.20;;
32038;SDS011;18549;42.286;22.688;2023-02-28T02:38:03;31.23;;;10.47;;
32038;SDS011;18549;42.286;22.688;2023-02-28T02:40:35;20.20;;;11.27;;
32038;SDS011;18549;42.286;22.688;2023-02-28T02:43:10;20.03;;;11.37;;
32038;SDS011;18549;42.286;22.688;2023-02-28T02:45:44;22.07;;;11.20;;
32038;SDS011;18549;42.286;22.688;2023-02-28T02:48:17;20.90;;;10.73;;
32038;SDS011;18549;42.286;22.688;2023-02-28T02:50:49;21.23;;;11.93;;
32038;SDS011;18549;42.286;22.688;2023-02-28T02:53:21;24.33;;;13.27;;
32038;SDS011;18549;42.286;22.688;2023-02-28T02:55:51;34.70;;;15.63;;
32038;SDS011;18549;42.286;22.688;2023-02-28T02:58:20;29.63;;;14.97;;
32038;SDS011;18549;42.286;22.688;2023-02-28T03:00:52;33.40;;;16.60;;
32038;SDS011;18549;42.286;22.688;2023-02-28T03:03:22;33.60;;;17.80;;
32038;SDS011;18549;42.286;22.688;2023-02-28T03:05:56;18.27;;;12.87;;
32038;SDS011;18549;42.286;22.688;2023-02-28T03:08:26;17.13;;;9.53;;
32038;SDS011;18549;42.286;22.688;2023-02-28T03:10:56;14.10;;;8.87;;
32038;SDS011;18549;42.286;22.688;2023-02-28T03:13:41;17.97;;;9.87;;
32038;SDS011;18549;42.286;22.688;2023-02-28T03:19:34;21.13;;;12.47;;
32038;SDS011;18549;42.286;22.688;2023-02-28T03:22:21;19.10;;;12.03;;
32038;SDS011;18549;42.286;22.688;2023-02-28T03:25:00;19.40;;;11.87;;
32038;SDS011;18549;42.286;22.688;2023-02-28T03:27:34;25.40;;;11.33;;
32038;SDS011;18549;42.286;22.688;2023-02-28T03:30:08;16.23;;;11.37;;
32038;SDS011;18549;42.286;22.688;2023-02-28T03:32:38;17.20;;;12.30;;
32038;SDS011;18549;42.286;22.688;2023-02-28T03:35:09;22.33;;;14.63;;
32038;SDS011;18549;42.286;22.688;2023-02-28T03:37:49;24.57;;;16.30;;
32038;SDS011;18549;42.286;22.688;2023-02-28T03:40:20;55.67;;;28.30;;
32038;SDS011;18549;42.286;22.688;2023-02-28T03:42:52;47.63;;;26.73;;
32038;SDS011;18549;42.286;22.688;2023-02-28T03:45:24;25.73;;;16.50;;
32038;SDS011;18549;42.286;22.688;2023-02-28T03:47:54;21.03;;;13.50;;
32038;SDS011;18549;42.286;22.688;2023-02-28T03:50:25;23.17;;;14.07;;
32038;SDS011;18549;42.286;22.688;2023-02-28T03:53:02;24.50;;;12.83;;
32038;SDS011;18549;42.286;22.688;2023-02-28T03:55:34;18.10;;;11.43;;
32038;SDS011;18549;42.286;22.688;2023-02-28T03:58:08;24.07;;;12.90;;
32038;SDS011;18549;42.286;22.688;2023-02-28T04:00:43;27.53;;;15.30;;
32038;SDS011;18549;42.286;22.688;2023-02-28T04:03:13;37.60;;;19.30;;
32038;SDS011;18549;42.286;22.688;2023-02-28T04:05:47;28.23;;;16.57;;
32038;SDS011;18549;42.286;22.688;2023-02-28T04:08:19;25.93;;;17.00;;
32038;SDS011;18549;42.286;22.688;2023-02-28T04:10:47;26.10;;;16.10;;
32038;SDS011;18549;42.286;22.688;2023-02-28T04:13:19;22.33;;;15.03;;
32038;SDS011;18549;42.286;22.688;2023-02-28T04:15:48;32.93;;;19.07;;
32038;SDS011;18549;42.286;22.688;2023-02-28T04:18:14;36.43;;;17.70;;
32038;SDS011;18549;42.286;22.688;2023-02-28T04:20:41;25.60;;;16.63;;
32038;SDS011;18549;42.286;22.688;2023-02-28T04:23:08;32.93;;;18.03;;
32038;SDS011;18549;42.286;22.688;2023-02-28T04:25:36;40.90;;;19.40;;
32038;SDS011;18549;42.286;22.688;2023-02-28T04:28:05;32.90;;;18.80;;
32038;SDS011;18549;42.286;22.688;2023-02-28T04:30:32;30.13;;;18.70;;
32038;SDS011;18549;42.286;22.688;2023-02-28T04:32:59;34.27;;;19.97;;
32038;SDS011;18549;42.286;22.688;2023-02-28T04:35:26;42.30;;;20.90;;
32038;SDS011;18549;42.286;22.688;2023-02-28T04:37:53;38.93;;;20.73;;
32038;SDS011;18549;42.286;22.688;2023-02-28T04:40:20;42.20;;;23.57;;
32038;SDS011;18549;42.286;22.688;2023-02-28T04:42:48;43.30;;;23.87;;
32038;SDS011;18549;42.286;22.688;2023-02-28T04:45:15;52.03;;;28.67;;
32038;SDS011;18549;42.286;22.688;2023-02-28T04:47:42;64.93;;;32.30;;
32038;SDS011;18549;42.286;22.688;2023-02-28T04:50:09;95.20;;;43.63;;
32038;SDS011;18549;42.286;22.688;2023-02-28T04:52:36;60.37;;;30.93;;
32038;SDS011;18549;42.286;22.688;2023-02-28T04:55:03;61.80;;;31.90;;
32038;SDS011;18549;42.286;22.688;2023-02-28T04:57:31;50.73;;;25.40;;
32038;SDS011;18549;42.286;22.688;2023-02-28T05:00:00;60.00;;;27.07;;
32038;SDS011;18549;42.286;22.688;2023-02-28T05:02:34;67.33;;;32.87;;
32038;SDS011;18549;42.286;22.688;2023-02-28T05:05:01;70.33;;;34.20;;
32038;SDS011;18549;42.286;22.688;2023-02-28T05:07:28;65.60;;;32.63;;
32038;SDS011;18549;42.286;22.688;2023-02-28T05:09:55;63.33;;;31.80;;
32038;SDS011;18549;42.286;22.688;2023-02-28T05:12:22;61.97;;;30.93;;
32038;SDS011;18549;42.286;22.688;2023-02-28T05:14:48;59.83;;;31.73;;
32038;SDS011;18549;42.286;22.688;2023-02-28T05:17:17;62.43;;;32.03;;
32038;SDS011;18549;42.286;22.688;2023-02-28T05:19:43;68.67;;;33.00;;
32038;SDS011;18549;42.286;22.688;2023-02-28T05:22:12;71.23;;;38.00;;
32038;SDS011;18549;42.286;22.688;2023-02-28T05:24:40;60.00;;;36.63;;
32038;SDS011;18549;42.286;22.688;2023-02-28T05:27:07;54.53;;;30.47;;
32038;SDS011;18549;42.286;22.688;2023-02-28T05:29:35;61.90;;;31.77;;
32038;SDS011;18549;42.286;22.688;2023-02-28T05:32:06;82.93;;;38.77;;
32038;SDS011;18549;42.286;22.688;2023-02-28T05:34:36;108.30;;;49.60;;
32038;SDS011;18549;42.286;22.688;2023-02-28T05:37:03;107.73;;;49.90;;
32038;SDS011;18549;42.286;22.688;2023-02-28T05:39:30;148.93;;;68.93;;
32038;SDS011;18549;42.286;22.688;2023-02-28T05:41:56;391.80;;;133.60;;
32038;SDS011;18549;42.286;22.688;2023-02-28T05:44:23;315.67;;;215.67;;
32038;SDS011;18549;42.286;22.688;2023-02-28T05:46:50;54.30;;;32.73;;
32038;SDS011;18549;42.286;22.688;2023-02-28T05:49:17;37.77;;;22.77;;
32038;SDS011;18549;42.286;22.688;2023-02-28T05:51:46;28.17;;;18.00;;
32038;SDS011;18549;42.286;22.688;2023-02-28T05:54:12;29.07;;;16.47;;
32038;SDS011;18549;42.286;22.688;2023-02-28T05:56:39;49.60;;;31.10;;
32038;SDS011;18549;42.286;22.688;2023-02-28T05:59:09;59.90;;;33.80;;
32038;SDS011;18549;42.286;22.688;2023-02-28T06:01:36;165.10;;;93.80;;
32038;SDS011;18549;42.286;22.688;2023-02-28T06:04:05;29.13;;;17.37;;
32038;SDS011;18549;42.286;22.688;2023-02-28T06:06:34;62.03;;;42.93;;
32038;SDS011;18549;42.286;22.688;2023-02-28T06:09:03;37.47;;;19.63;;
32038;SDS011;18549;42.286;22.688;2023-02-28T06:11:30;48.60;;;18.77;;
32038;SDS011;18549;42.286;22.688;2023-02-28T06:14:00;49.40;;;19.30;;
32038;SDS011;18549;42.286;22.688;2023-02-28T06:16:27;35.50;;;18.30;;
32038;SDS011;18549;42.286;22.688;2023-02-28T06:18:56;26.80;;;16.23;;
32038;SDS011;18549;42.286;22.688;2023-02-28T06:21:24;39.67;;;19.53;;
32038;SDS011;18549;42.286;22.688;2023-02-28T06:23:52;29.60;;;14.83;;
32038;SDS011;18549;42.286;22.688;2023-02-28T06:26:20;24.33;;;12.80;;
32038;SDS011;18549;42.286;22.688;2023-02-28T06:28:48;40.27;;;14.07;;
32038;SDS011;18549;42.286;22.688;2023-02-28T06:31:16;34.13;;;17.10;;
32038;SDS011;18549;42.286;22.688;2023-02-28T06:33:44;40.23;;;19.87;;
32038;SDS011;18549;42.286;22.688;2023-02-28T06:36:13;44.70;;;20.33;;
32038;SDS011;18549;42.286;22.688;2023-02-28T06:38:41;35.93;;;20.77;;
32038;SDS011;18549;42.286;22.688;2023-02-28T06:41:09;48.70;;;25.50;;
32038;SDS011;18549;42.286;22.688;2023-02-28T06:43:38;58.03;;;29.77;;
32038;SDS011;18549;42.286;22.688;2023-02-28T06:46:07;55.03;;;25.40;;
32038;SDS011;18549;42.286;22.688;2023-02-28T07:02:47;42.30;;;26.90;;
32038;SDS011;18549;42.286;22.688;2023-02-28T07:05:14;51.73;;;30.70;;
32038;SDS011;18549;42.286;22.688;2023-02-28T07:07:41;55.20;;;29.63;;
32038;SDS011;18549;42.286;22.688;2023-02-28T07:10:10;50.63;;;28.83;;
32038;SDS011;18549;42.286;22.688;2023-02-28T07:12:38;45.70;;;29.77;;
32038;SDS011;18549;42.286;22.688;2023-02-28T07:15:05;51.07;;;32.83;;
32038;SDS011;18549;42.286;22.688;2023-02-28T07:17:33;53.40;;;34.60;;
32038;SDS011;18549;42.286;22.688;2023-02-28T07:20:01;51.40;;;34.70;;
32038;SDS011;18549;42.286;22.688;2023-02-28T07:22:29;56.13;;;38.93;;
32038;SDS011;18549;42.286;22.688;2023-02-28T07:24:56;49.07;;;34.50;;
32038;SDS011;18549;42.286;22.688;2023-02-28T07:27:23;40.90;;;31.43;;
32038;SDS011;18549;42.286;22.688;2023-02-28T07:29:50;56.37;;;38.00;;
32038;SDS011;18549;42.286;22.688;2023-02-28T07:32:18;61.63;;;42.77;;
32038;SDS011;18549;42.286;22.688;2023-02-28T07:34:45;66.37;;;43.13;;
32038;SDS011;18549;42.286;22.688;2023-02-28T07:37:13;64.07;;;42.33;;
32038;SDS011;18549;42.286;22.688;2023-02-28T07:39:42;58.77;;;41.20;;
32038;SDS011;18549;42.286;22.688;2023-02-28T07:42:09;64.93;;;42.87;;
32038;SDS011;18549;42.286;22.688;2023-02-28T07:44:38;66.50;;;44.03;;
32038;SDS011;18549;42.286;22.688;2023-02-28T07:47:06;131.70;;;68.53;;
32038;SDS011;18549;42.286;22.688;2023-02-28T07:49:34;68.50;;;40.20;;
32038;SDS011;18549;42.286;22.688;2023-02-28T07:52:02;68.57;;;41.30;;
32038;SDS011;18549;42.286;22.688;2023-02-28T07:54:32;67.27;;;42.73;;
32038;SDS011;18549;42.286;22.688;2023-02-28T07:56:59;78.37;;;44.33;;
32038;SDS011;18549;42.286;22.688;2023-02-28T07:59:25;75.30;;;45.20;;
32038;SDS011;18549;42.286;22.688;2023-02-28T08:01:53;76.47;;;49.20;;
32038;SDS011;18549;42.286;22.688;2023-02-28T08:04:20;87.07;;;50.43;;
32038;SDS011;18549;42.286;22.688;2023-02-28T08:06:48;73.93;;;47.60;;
32038;SDS011;18549;42.286;22.688;2023-02-28T08:09:17;56.90;;;38.23;;
32038;SDS011;18549;42.286;22.688;2023-02-28T08:11:47;62.13;;;39.20;;
32038;SDS011;18549;42.286;22.688;2023-02-28T08:14:14;71.47;;;44.33;;
32038;SDS011;18549;42.286;22.688;2023-02-28T08:16:41;69.30;;;43.77;;
32038;SDS011;18549;42.286;22.688;2023-02-28T08:19:08;61.27;;;36.80;;
32038;SDS011;18549;42.286;22.688;2023-02-28T08:21:36;63.20;;;37.73;;
32038;SDS011;18549;42.286;22.688;2023-02-28T08:24:03;83.43;;;46.87;;
32038;SDS011;18549;42.286;22.688;2023-02-28T08:26:31;71.43;;;43.20;;
32038;SDS011;18549;42.286;22.688;2023-02-28T08:28:59;76.77;;;49.67;;
32038;SDS011;18549;42.286;22.688;2023-02-28T08:31:26;90.77;;;56.80;;
32038;SDS011;18549;42.286;22.688;2023-02-28T08:33:53;124.80;;;70.53;;
32038;SDS011;18549;42.286;22.688;2023-02-28T08:36:23;68.40;;;46.83;;
32038;SDS011;18549;42.286;22.688;2023-02-28T08:38:53;65.63;;;42.47;;
32038;SDS011;18549;42.286;22.688;2023-02-28T08:41:23;61.37;;;40.00;;
32038;SDS011;18549;42.286;22.688;2023-02-28T08:43:51;63.13;;;41.23;;
32038;SDS011;18549;42.286;22.688;2023-02-28T08:46:20;275.83;;;130.00;;
32038;SDS011;18549;42.286;22.688;2023-02-28T08:48:47;71.33;;;47.87;;
32038;SDS011;18549;42.286;22.688;2023-02-28T08:51:18;63.37;;;39.07;;
32038;SDS011;18549;42.286;22.688;2023-02-28T08:53:51;86.57;;;57.40;;
32038;SDS011;18549;42.286;22.688;2023-02-28T08:56:18;51.60;;;36.37;;
32038;SDS011;18549;42.286;22.688;2023-02-28T08:58:46;44.63;;;28.90;;
32038;SDS011;18549;42.286;22.688;2023-02-28T09:01:15;43.73;;;27.63;;
32038;SDS011;18549;42.286;22.688;2023-02-28T09:03:46;48.33;;;26.43;;
32038;SDS011;18549;42.286;22.688;2023-02-28T09:06:14;43.90;;;24.30;;
32038;SDS011;18549;42.286;22.688;2023-02-28T09:08:42;52.10;;;23.67;;
32038;SDS011;18549;42.286;22.688;2023-02-28T09:11:09;45.37;;;25.33;;
32038;SDS011;18549;42.286;22.688;2023-02-28T09:13:38;39.60;;;18.13;;
32038;SDS011;18549;42.286;22.688;2023-02-28T09:16:06;43.20;;;18.00;;
32038;SDS011;18549;42.286;22.688;2023-02-28T09:18:35;45.83;;;21.93;;
32038;SDS011;18549;42.286;22.688;2023-02-28T09:21:05;37.07;;;18.67;;
32038;SDS011;18549;42.286;22.688;2023-02-28T09:23:33;46.83;;;23.70;;
32038;SDS011;18549;42.286;22.688;2023-02-28T09:26:01;47.77;;;20.67;;
32038;SDS011;18549;42.286;22.688;2023-02-28T09:28:28;54.80;;;21.03;;
32038;SDS011;18549;42.286;22.688;2023-02-28T09:30:55;43.60;;;21.83;;
32038;SDS011;18549;42.286;22.688;2023-02-28T09:33:24;55.00;;;19.33;;
32038;SDS011;18549;42.286;22.688;2023-02-28T09:35:57;42.17;;;20.67;;
32038;SDS011;18549;42.286;22.688;2023-02-28T09:38:27;35.17;;;19.57;;
32038;SDS011;18549;42.286;22.688;2023-02-28T09:40:55;42.57;;;20.87;;
32038;SDS011;18549;42.286;22.688;2023-02-28T09:43:25;48.27;;;19.37;;
32038;SDS011;18549;42.286;22.688;2023-02-28T09:45:56;35.13;;;18.67;;
32038;SDS011;18549;42.286;22.688;2023-02-28T09:48:29;41.33;;;18.37;;
32038;SDS011;18549;42.286;22.688;2023-02-28T09:51:02;46.97;;;19.60;;
32038;SDS011;18549;42.286;22.688;2023-02-28T09:53:34;32.90;;;12.90;;
32038;SDS011;18549;42.286;22.688;2023-02-28T09:56:04;47.47;;;13.50;;
32038;SDS011;18549;42.286;22.688;2023-02-28T09:58:41;41.93;;;11.67;;
32038;SDS011;18549;42.286;22.688;2023-02-28T10:01:17;37.23;;;14.60;;
32038;SDS011;18549;42.286;22.688;2023-02-28T10:03:50;40.37;;;13.10;;
32038;SDS011;18549;42.286;22.688;2023-02-28T10:06:25;42.67;;;17.53;;
32038;SDS011;18549;42.286;22.688;2023-02-28T10:08:58;38.13;;;13.93;;
32038;SDS011;18549;42.286;22.688;2023-02-28T10:11:28;31.53;;;14.40;;
32038;SDS011;18549;42.286;22.688;2023-02-28T10:14:00;49.17;;;13.53;;
32038;SDS011;18549;42.286;22.688;2023-02-28T10:16:31;65.17;;;21.67;;
32038;SDS011;18549;42.286;22.688;2023-02-28T10:19:03;42.70;;;16.93;;
32038;SDS011;18549;42.286;22.688;2023-02-28T10:21:34;28.03;;;15.23;;
32038;SDS011;18549;42.286;22.688;2023-02-28T10:24:10;30.10;;;11.70;;
32038;SDS011;18549;42.286;22.688;2023-02-28T10:26:43;39.03;;;13.33;;
32038;SDS011;18549;42.286;22.688;2023-02-28T10:29:12;36.97;;;13.77;;
32038;SDS011;18549;42.286;22.688;2023-02-28T10:31:39;38.70;;;16.20;;
32038;SDS011;18549;42.286;22.688;2023-02-28T10:34:06;31.57;;;11.90;;
32038;SDS011;18549;42.286;22.688;2023-02-28T10:36:34;33.30;;;11.80;;
32038;SDS011;18549;42.286;22.688;2023-02-28T10:39:00;29.97;;;12.10;;
32038;SDS011;18549;42.286;22.688;2023-02-28T10:41:29;27.63;;;12.20;;
32038;SDS011;18549;42.286;22.688;2023-02-28T10:44:13;35.73;;;9.87;;
32038;SDS011;18549;42.286;22.688;2023-02-28T10:46:43;52.40;;;19.83;;
32038;SDS011;18549;42.286;22.688;2023-02-28T10:49:13;53.97;;;25.77;;
32038;SDS011;18549;42.286;22.688;2023-02-28T10:51:43;44.37;;;21.30;;
32038;SDS011;18549;42.286;22.688;2023-02-28T10:54:14;46.33;;;23.80;;
32038;SDS011;18549;42.286;22.688;2023-02-28T10:56:44;56.77;;;22.47;;
32038;SDS011;18549;42.286;22.688;2023-02-28T10:59:26;41.53;;;20.97;;
32038;SDS011;18549;42.286;22.688;2023-02-28T11:01:55;36.87;;;18.23;;
32038;SDS011;18549;42.286;22.688;2023-02-28T11:04:32;44.33;;;15.87;;
32038;SDS011;18549;42.286;22.688;2023-02-28T11:07:03;48.23;;;16.07;;
32038;SDS011;18549;42.286;22.688;2023-02-28T11:09:32;41.77;;;15.63;;
32038;SDS011;18549;42.286;22.688;2023-02-28T11:12:02;40.30;;;19.57;;
32038;SDS011;18549;42.286;22.688;2023-02-28T11:14:32;64.00;;;19.87;;
32038;SDS011;18549;42.286;22.688;2023-02-28T11:17:03;62.80;;;20.80;;
32038;SDS011;18549;42.286;22.688;2023-02-28T11:19:43;48.27;;;16.63;;
32038;SDS011;18549;42.286;22.688;2023-02-28T11:22:15;51.27;;;17.23;;
32038;SDS011;18549;42.286;22.688;2023-02-28T11:24:45;49.00;;;15.77;;
32038;SDS011;18549;42.286;22.688;2023-02-28T11:27:26;43.43;;;17.30;;
32038;SDS011;18549;42.286;22.688;2023-02-28T11:32:56;47.20;;;13.77;;
32038;SDS011;18549;42.286;22.688;2023-02-28T11:35:27;48.27;;;14.43;;
32038;SDS011;18549;42.286;22.688;2023-02-28T11:37:56;57.50;;;14.50;;
32038;SDS011;18549;42.286;22.688;2023-02-28T11:40:25;51.30;;;16.37;;
32038;SDS011;18549;42.286;22.688;2023-02-28T11:43:10;51.00;;;15.03;;
32038;SDS011;18549;42.286;22.688;2023-02-28T11:45:49;54.40;;;15.37;;
32038;SDS011;18549;42.286;22.688;2023-02-28T11:48:32;56.17;;;17.03;;
32038;SDS011;18549;42.286;22.688;2023-02-28T11:51:10;50.70;;;16.57;;
32038;SDS011;18549;42.286;22.688;2023-02-28T11:53:56;54.37;;;16.63;;
32038;SDS011;18549;42.286;22.688;2023-02-28T11:56:36;42.37;;;14.30;;
32038;SDS011;18549;42.286;22.688;2023-02-28T11:59:19;48.03;;;15.37;;
32038;SDS011;18549;42.286;22.688;2023-02-28T12:04:52;50.10;;;14.43;;
32038;SDS011;18549;42.286;22.688;2023-02-28T12:07:32;48.23;;;13.73;;
32038;SDS011;18549;42.286;22.688;2023-02-28T12:10:11;39.27;;;12.90;;
32038;SDS011;18549;42.286;22.688;2023-02-28T12:12:48;43.57;;;14.67;;
32038;SDS011;18549;42.286;22.688;2023-02-28T12:15:35;43.77;;;13.47;;
32038;SDS011;18549;42.286;22.688;2023-02-28T12:18:44;45.53;;;14.03;;
32038;SDS011;18549;42.286;22.688;2023-02-28T12:21:24;42.77;;;14.63;;
32038;SDS011;18549;42.286;22.688;2023-02-28T12:24:04;56.13;;;16.47;;
32038;SDS011;18549;42.286;22.688;2023-02-28T12:26:42;56.07;;;13.63;;
32038;SDS011;18549;42.286;22.688;2023-02-28T12:29:13;51.03;;;15.17;;
32038;SDS011;18549;42.286;22.688;2023-02-28T12:31:47;50.40;;;14.80;;
32038;SDS011;18549;42.286;22.688;2023-02-28T12:34:17;50.80;;;16.23;;
32038;SDS011;18549;42.286;22.688;2023-02-28T12:36:46;42.40;;;14.40;;
32038;SDS011;18549;42.286;22.688;2023-02-28T12:39:15;51.53;;;16.07;;
32038;SDS011;18549;42.286;22.688;2023-02-28T12:41:46;52.23;;;14.70;;
32038;SDS011;18549;42.286;22.688;2023-02-28T12:44:16;65.20;;;15.63;;
32038;SDS011;18549;42.286;22.688;2023-02-28T12:46:48;40.23;;;15.40;;
32038;SDS011;18549;42.286;22.688;2023-02-28T12:49:18;65.33;;;17.27;;
32038;SDS011;18549;42.286;22.688;2023-02-28T12:51:52;61.33;;;14.93;;
32038;SDS011;18549;42.286;22.688;2023-02-28T12:54:20;38.13;;;14.03;;
32038;SDS011;18549;42.286;22.688;2023-02-28T12:56:53;59.27;;;13.97;;
32038;SDS011;18549;42.286;22.688;2023-02-28T12:59:25;47.27;;;12.03;;
32038;SDS011;18549;42.286;22.688;2023-02-28T13:02:08;38.30;;;11.07;;
32038;SDS011;18549;42.286;22.688;2023-02-28T13:05:07;67.10;;;13.63;;
32038;SDS011;18549;42.286;22.688;2023-02-28T13:07:52;37.87;;;11.27;;
32038;SDS011;18549;42.286;22.688;2023-02-28T13:10:38;46.13;;;13.87;;
32038;SDS011;18549;42.286;22.688;2023-02-28T13:13:11;56.78;;;13.52;;
32038;SDS011;18549;42.286;22.688;2023-02-28T13:15:42;61.67;;;13.77;;
32038;SDS011;18549;42.286;22.688;2023-02-28T13:21:21;45.07;;;12.77;;
32038;SDS011;18549;42.286;22.688;2023-02-28T13:23:57;38.37;;;11.83;;
32038;SDS011;18549;42.286;22.688;2023-02-28T13:29:30;49.70;;;13.23;;
32038;SDS011;18549;42.286;22.688;2023-02-28T13:48:16;76.60;;;13.63;;
32038;SDS011;18549;42.286;22.688;2023-02-28T13:50:45;53.93;;;12.90;;
32038;SDS011;18549;42.286;22.688;2023-02-28T13:53:30;55.47;;;14.43;;
32038;SDS011;18549;42.286;22.688;2023-02-28T13:56:10;70.43;;;15.37;;
32038;SDS011;18549;42.286;22.688;2023-02-28T13:58:53;43.77;;;15.17;;
32038;SDS011;18549;42.286;22.688;2023-02-28T14:01:32;47.97;;;11.52;;
32038;SDS011;18549;42.286;22.688;2023-02-28T14:07:19;56.83;;;16.97;;
32038;SDS011;18549;42.286;22.688;2023-02-28T14:09:51;52.80;;;16.53;;
32038;SDS011;18549;42.286;22.688;2023-02-28T14:15:26;45.53;;;11.93;;
32038;SDS011;18549;42.286;22.688;2023-02-28T14:18:00;48.13;;;14.83;;
32038;SDS011;18549;42.286;22.688;2023-02-28T14:20:31;47.10;;;13.20;;
32038;SDS011;18549;42.286;22.688;2023-02-28T14:23:02;46.37;;;19.20;;
32038;SDS011;18549;42.286;22.688;2023-02-28T14:25:37;50.90;;;19.20;;
32038;SDS011;18549;42.286;22.688;2023-02-28T14:28:13;72.73;;;22.33;;
32038;SDS011;18549;42.286;22.688;2023-02-28T14:30:56;72.70;;;22.73;;
32038;SDS011;18549;42.286;22.688;2023-02-28T14:33:41;74.07;;;24.33;;
32038;SDS011;18549;42.286;22.688;2023-02-28T14:36:17;68.60;;;20.20;;
32038;SDS011;18549;42.286;22.688;2023-02-28T14:38:50;53.17;;;16.37;;
32038;SDS011;18549;42.286;22.688;2023-02-28T14:41:20;44.63;;;14.80;;
32038;SDS011;18549;42.286;22.688;2023-02-28T14:43:49;68.87;;;19.97;;
32038;SDS011;18549;42.286;22.688;2023-02-28T14:46:20;52.70;;;20.10;;
32038;SDS011;18549;42.286;22.688;2023-02-28T14:48:49;64.93;;;19.93;;
32038;SDS011;18549;42.286;22.688;2023-02-28T14:51:20;58.73;;;19.60;;
32038;SDS011;18549;42.286;22.688;2023-02-28T14:53:50;61.10;;;19.27;;
32038;SDS011;18549;42.286;22.688;2023-02-28T14:56:19;78.63;;;23.63;;
32038;SDS011;18549;42.286;22.688;2023-02-28T14:58:51;79.60;;;33.37;;
32038;SDS011;18549;42.286;22.688;2023-02-28T15:01:20;59.30;;;23.83;;
32038;SDS011;18549;42.286;22.688;2023-02-28T15:03:48;49.33;;;18.93;;
32038;SDS011;18549;42.286;22.688;2023-02-28T15:06:23;43.13;;;16.07;;
32038;SDS011;18549;42.286;22.688;2023-02-28T15:11:39;52.10;;;17.83;;
32038;SDS011;18549;42.286;22.688;2023-02-28T15:14:06;87.93;;;25.40;;
32038;SDS011;18549;42.286;22.688;2023-02-28T15:16:40;59.87;;;19.27;;
32038;SDS011;18549;42.286;22.688;2023-02-28T15:19:12;57.03;;;17.13;;
32038;SDS011;18549;42.286;22.688;2023-02-28T15:21:41;59.77;;;18.80;;
32038;SDS011;18549;42.286;22.688;2023-02-28T15:24:14;55.30;;;16.07;;
32038;SDS011;18549;42.286;22.688;2023-02-28T15:26:49;59.13;;;19.90;;
32038;SDS011;18549;42.286;22.688;2023-02-28T15:29:20;41.73;;;15.80;;
32038;SDS011;18549;42.286;22.688;2023-02-28T15:31:50;56.40;;;18.67;;
32038;SDS011;18549;42.286;22.688;2023-02-28T15:34:22;34.97;;;17.20;;
32038;SDS011;18549;42.286;22.688;2023-02-28T15:36:53;40.87;;;16.77;;